Jackson, Mississippi
Current Conditions -  °F | °C
As of 10:53 AM on Friday 28 Nov 2014 (Local Time) from KHKS Reporting Station
Clear Clear  
Wind Chill: 47°   Ceiling: Unl
Heat Index: 49°   Visibility: 10mi
Dew Point: 27°   Wind: 6mph
Humidity: 43%   Direction: 150°SSE
Pressure: 30.41"   Gusts: NA
Location:  32.3°N, 90.18°W
Report Text: KHKS 281653Z 15005KT 10SM CLR 09/M03 A3041 RMK AO2 SLP294 T00941028
Loading
Personal Weather Stations






























Interactive Weather Map New forecast layout! Learn more

10-Day Weather Forecast

Advertisements
Track Severe Weather on mobile